createdAt,value
2022-12-03T00:00:41.528Z,97505.06
2022-12-03T00:03:27.054Z,97503.28
2022-12-03T00:06:12.518Z,97497.06
2022-12-03T00:08:58.135Z,97496.09
2022-12-03T00:11:44.325Z,97501.31
2022-12-03T00:14:29.659Z,97497.75
2022-12-03T00:17:14.845Z,97497.09
2022-12-03T00:20:00.737Z,97496.59
2022-12-03T00:22:46.040Z,97493.97
2022-12-03T00:25:31.983Z,97492.84
2022-12-03T00:28:17.687Z,97485.00
2022-12-03T00:31:03.231Z,97489.91
2022-12-03T00:33:50.203Z,97483.38
2022-12-03T00:36:36.079Z,97486.66
2022-12-03T00:39:21.499Z,97486.66
2022-12-03T00:42:06.982Z,97480.47
2022-12-03T00:44:53.651Z,97496.78
2022-12-03T00:47:39.438Z,97493.34
2022-12-03T00:50:25.062Z,97500.19
2022-12-03T00:53:10.728Z,97499.22
2022-12-03T00:55:56.711Z,97500.88
2022-12-03T00:58:42.328Z,97500.03
2022-12-03T01:01:28.093Z,97500.03
2022-12-03T01:04:13.822Z,97501.66
2022-12-03T01:07:00.624Z,97503.31
2022-12-03T01:09:46.739Z,97505.91
2022-12-03T01:12:32.201Z,97508.84
2022-12-03T01:15:17.662Z,97503.75
2022-12-03T01:18:03.131Z,97500.34
2022-12-03T01:20:48.672Z,97504.59
2022-12-03T01:23:34.363Z,97500.19
2022-12-03T01:26:20.212Z,97506.22
2022-12-03T01:29:05.874Z,97504.44
2022-12-03T01:32:09.899Z,97507.88
2022-12-03T01:34:56.280Z,97497.44
2022-12-03T01:37:42.105Z,97500.03
2022-12-03T01:40:27.665Z,97501.66
2022-12-03T01:43:13.218Z,97500.69
2022-12-03T01:45:58.771Z,97496.59
2022-12-03T01:48:46.121Z,97499.41
2022-12-03T01:51:31.957Z,97498.59
2022-12-03T01:54:21.261Z,97495.81
2022-12-03T01:57:19.342Z,97499.25
2022-12-03T02:00:05.947Z,97499.06
2022-12-03T02:02:57.716Z,97507.88
2022-12-03T02:05:43.262Z,97496.47
2022-12-03T02:08:34.642Z,97500.06
2022-12-03T02:11:26.716Z,97503.31
2022-12-03T02:14:15.805Z,97505.94
2022-12-03T02:17:01.364Z,97496.28
2022-12-03T02:19:48.226Z,97483.25
2022-12-03T02:22:47.676Z,97483.25
2022-12-03T02:25:35.810Z,97492.72
2022-12-03T02:28:21.464Z,97489.13
2022-12-03T02:31:07.321Z,97495.16
2022-12-03T02:33:52.898Z,97493.53
2022-12-03T02:36:39.982Z,97496.97
2022-12-03T02:39:25.468Z,97502.19
2022-12-03T02:42:29.671Z,97495.16
2022-12-03T02:45:22.794Z,97495.16
2022-12-03T02:48:14.131Z,97494.97
2022-12-03T02:51:02.475Z,97496.78
2022-12-03T02:53:50.403Z,97496.78
2022-12-03T02:56:36.233Z,97499.41
2022-12-03T02:59:21.817Z,97494.97
2022-12-03T03:02:07.774Z,97486.34
2022-12-03T03:04:56.259Z,97488.78
2022-12-03T03:07:42.163Z,97488.78
2022-12-03T03:10:29.353Z,97493.22
2022-12-03T03:13:18.271Z,97489.75
2022-12-03T03:16:08.119Z,97490.59
2022-12-03T03:18:53.863Z,97485.38
2022-12-03T03:21:39.064Z,97480.16
2022-12-03T03:24:25.676Z,97485.53
2022-12-03T03:27:11.451Z,97489.94
2022-12-03T03:29:58.908Z,97488.97
2022-12-03T03:32:44.342Z,97486.34
2022-12-03T03:35:29.904Z,97488.16
2022-12-03T03:38:17.570Z,97485.69
2022-12-03T03:41:05.712Z,97483.91
2022-12-03T03:43:51.240Z,97475.25
2022-12-03T03:46:37.729Z,97472.63
2022-12-03T03:49:23.508Z,97472.63
2022-12-03T03:52:11.818Z,97482.28
2022-12-03T03:54:57.769Z,97473.63
2022-12-03T03:57:43.605Z,97472.00
2022-12-03T04:00:30.594Z,97477.38
2022-12-03T04:03:16.359Z,97482.09
2022-12-03T04:06:02.140Z,97488.59
2022-12-03T04:08:47.803Z,97488.59
2022-12-03T04:11:52.109Z,97488.59
2022-12-03T04:14:38.069Z,97491.38
2022-12-03T04:17:23.757Z,97487.13
2022-12-03T04:20:09.334Z,97486.50
2022-12-03T04:22:54.923Z,97483.06
2022-12-03T04:25:58.779Z,97484.88
2022-12-03T04:28:50.847Z,97485.66
2022-12-03T04:31:55.500Z,97481.28
2022-12-03T04:34:59.724Z,97488.09
2022-12-03T04:37:45.255Z,97490.88
2022-12-03T04:40:49.938Z,97491.84
2022-12-03T04:43:56.036Z,97487.66
2022-12-03T04:46:41.348Z,97492.19
2022-12-03T04:49:26.776Z,97496.75
2022-12-03T04:52:14.506Z,97490.22
2022-12-03T04:55:00.278Z,97496.41
2022-12-03T04:57:45.701Z,97492.16
2022-12-03T05:00:31.278Z,97491.38
2022-12-03T05:03:16.662Z,97488.91
2022-12-03T05:06:02.019Z,97488.25
2022-12-03T05:08:47.593Z,97493.47
2022-12-03T05:11:33.144Z,97498.03
2022-12-03T05:14:18.784Z,97493.94
2022-12-03T05:17:05.074Z,97492.16
2022-12-03T05:20:09.025Z,97502.56
2022-12-03T05:22:54.729Z,97496.72
2022-12-03T05:25:41.636Z,97494.13
2022-12-03T05:28:27.369Z,97495.09
2022-12-03T05:31:12.881Z,97489.88
2022-12-03T05:33:58.224Z,97489.88
2022-12-03T05:36:43.558Z,97489.03
2022-12-03T05:39:29.171Z,97485.78
2022-12-03T05:42:33.227Z,97490.16
2022-12-03T05:45:19.885Z,97494.41
2022-12-03T05:48:07.395Z,97483.31
2022-12-03T05:50:53.146Z,97481.72
2022-12-03T05:53:38.394Z,97484.16
2022-12-03T05:56:24.019Z,97482.34
2022-12-03T05:59:09.315Z,97483.19
2022-12-03T06:01:54.799Z,97487.56
2022-12-03T06:04:40.029Z,97487.56
2022-12-03T06:07:25.713Z,97484.97
2022-12-03T06:10:13.531Z,97484.97
2022-12-03T06:12:59.210Z,97492.78
2022-12-03T06:15:44.865Z,97479.91
2022-12-03T06:18:30.403Z,97477.31
2022-12-03T06:21:15.830Z,97479.09
2022-12-03T06:24:01.606Z,97476.50
2022-12-03T06:26:46.914Z,97478.28
2022-12-03T06:29:33.457Z,97471.28
2022-12-03T06:32:19.126Z,97477.31
2022-12-03T06:35:04.719Z,97489.53
2022-12-03T06:37:50.693Z,97495.56
2022-12-03T06:40:38.300Z,97497.34
2022-12-03T06:43:23.613Z,97502.88
2022-12-03T06:46:09.307Z,97510.88
2022-12-03T06:48:54.650Z,97507.41
2022-12-03T06:51:40.195Z,97498.00
2022-12-03T06:54:25.917Z,97505.81
2022-12-03T06:57:12.198Z,97503.34
2022-12-03T06:59:58.126Z,97505.16
2022-12-03T07:02:45.180Z,97501.72
2022-12-03T07:05:31.973Z,97503.50
2022-12-03T07:08:17.406Z,97504.31
2022-12-03T07:11:02.931Z,97496.66
2022-12-03T07:13:48.645Z,97494.72
2022-12-03T07:16:38.200Z,97495.53
2022-12-03T07:19:29.038Z,97504.00
2022-12-03T07:22:17.547Z,97505.66
2022-12-03T07:25:03.259Z,97499.59
2022-12-03T07:27:48.657Z,97503.22
2022-12-03T07:30:34.010Z,97505.66
2022-12-03T07:33:19.494Z,97495.38
2022-12-03T07:36:05.346Z,97490.97
2022-12-03T07:38:51.107Z,97492.63
2022-12-03T07:41:36.906Z,97496.03
2022-12-03T07:44:22.848Z,97496.69
2022-12-03T07:47:08.616Z,97496.53
2022-12-03T07:49:53.860Z,97503.53
2022-12-03T07:52:39.864Z,97504.19
2022-12-03T07:55:26.050Z,97492.78
2022-12-03T07:58:11.379Z,97500.59
2022-12-03T08:00:57.551Z,97507.47
2022-12-03T08:03:43.252Z,97494.59
2022-12-03T08:06:29.140Z,97499.63
2022-12-03T08:09:16.455Z,97490.84
2022-12-03T08:12:13.135Z,97485.63
2022-12-03T08:14:59.077Z,97483.00
2022-12-03T08:17:47.462Z,97493.44
2022-12-03T08:20:37.592Z,97488.22
2022-12-03T08:23:25.258Z,97487.94
2022-12-03T08:26:36.930Z,97482.38
2022-12-03T08:29:22.392Z,97475.22
2022-12-03T08:32:11.392Z,97480.25
2022-12-03T08:34:57.395Z,97473.25
2022-12-03T08:37:43.464Z,97471.31
2022-12-03T08:40:51.208Z,97475.53
2022-12-03T08:43:42.449Z,97482.56
2022-12-03T08:46:28.157Z,97480.75
2022-12-03T08:49:14.744Z,97489.41
2022-12-03T08:52:01.779Z,97484.03
2022-12-03T08:54:53.186Z,97481.09
2022-12-03T08:57:41.837Z,97481.41
2022-12-03T09:00:27.249Z,97486.50
2022-12-03T09:03:18.919Z,97491.38
2022-12-03T09:06:04.879Z,97481.63
2022-12-03T09:08:51.731Z,97488.59
2022-12-03T09:11:37.966Z,97491.56
2022-12-03T09:14:23.688Z,97485.38
2022-12-03T09:17:09.421Z,97491.56
2022-12-03T09:19:54.942Z,97496.09
2022-12-03T09:22:40.711Z,97500.34
2022-12-03T09:25:26.157Z,97489.75
2022-12-03T09:28:12.189Z,97487.31
2022-12-03T09:30:58.081Z,97493.31
2022-12-03T09:33:44.771Z,97496.59
2022-12-03T09:36:30.652Z,97494.66
2022-12-03T09:39:17.515Z,97489.09
2022-12-03T09:42:03.493Z,97489.09
2022-12-03T09:44:49.356Z,97479.50
2022-12-03T09:47:35.326Z,97484.38
2022-12-03T09:50:27.964Z,97483.56
2022-12-03T09:53:19.799Z,97473.13
2022-12-03T09:56:06.468Z,97480.63
2022-12-03T09:58:52.643Z,97482.09
2022-12-03T10:01:40.589Z,97481.13
2022-12-03T10:04:28.648Z,97473.28
2022-12-03T10:07:14.550Z,97479.16
2022-12-03T10:10:00.196Z,97469.41
2022-12-03T10:12:46.855Z,97471.34
2022-12-03T10:15:32.886Z,97468.06
2022-12-03T10:18:30.533Z,97467.28
2022-12-03T10:21:36.618Z,97469.72
2022-12-03T10:24:29.759Z,97470.53
2022-12-03T10:27:24.191Z,97462.84
2022-12-03T10:30:23.764Z,97454.22
2022-12-03T10:33:19.010Z,97454.06
2022-12-03T10:36:26.855Z,97474.25
2022-12-03T10:39:17.314Z,97462.84
2022-12-03T10:42:16.429Z,97459.44
2022-12-03T10:45:21.091Z,97464.97
2022-12-03T10:48:20.437Z,97454.38
2022-12-03T10:51:22.697Z,97465.47
2022-12-03T10:54:21.134Z,97464.50
2022-12-03T10:57:07.707Z,97465.16
2022-12-03T10:59:53.109Z,97466.63
2022-12-03T11:02:38.962Z,97456.19
2022-12-03T11:05:28.032Z,97452.41
2022-12-03T11:08:25.613Z,97455.69
2022-12-03T11:11:23.639Z,97464.16
2022-12-03T11:14:10.793Z,97452.75
2022-12-03T11:16:56.696Z,97459.59
2022-12-03T11:19:45.508Z,97455.03
2022-12-03T11:22:46.553Z,97448.84
2022-12-03T11:25:46.184Z,97447.84
2022-12-03T11:28:32.951Z,97436.44
2022-12-03T11:31:38.255Z,97435.63
2022-12-03T11:34:41.070Z,97427.97
2022-12-03T11:37:27.535Z,97421.75
2022-12-03T11:40:19.038Z,97423.38
2022-12-03T11:43:05.537Z,97424.34
2022-12-03T11:45:51.048Z,97428.75
2022-12-03T11:48:44.993Z,97425.97
2022-12-03T11:51:32.130Z,97412.13
2022-12-03T11:54:21.515Z,97411.97
2022-12-03T11:57:34.403Z,97405.09
2022-12-03T12:00:22.580Z,97410.97
2022-12-03T12:03:26.874Z,97411.97
2022-12-03T12:06:15.859Z,97407.09
2022-12-03T12:09:03.761Z,97408.69
2022-12-03T12:11:49.200Z,97413.09
2022-12-03T12:14:34.883Z,97407.09
2022-12-03T12:17:30.995Z,97400.22
2022-12-03T12:20:25.859Z,97402.19
2022-12-03T12:23:28.074Z,97398.91
2022-12-03T12:26:14.994Z,97395.50
2022-12-03T12:29:00.973Z,97388.63
2022-12-03T12:32:11.065Z,97393.84
2022-12-03T12:35:12.478Z,97387.66
2022-12-03T12:38:07.700Z,97384.06
2022-12-03T12:40:53.562Z,97376.06
2022-12-03T12:43:42.379Z,97376.06
2022-12-03T12:46:47.426Z,97373.28
2022-12-03T12:49:33.574Z,97368.91
2022-12-03T12:52:19.299Z,97369.72
2022-12-03T12:55:09.833Z,97366.91
2022-12-03T12:58:05.802Z,97376.56
2022-12-03T13:00:54.615Z,97372.31
2022-12-03T13:03:40.503Z,97369.06
2022-12-03T13:06:29.261Z,97368.06
2022-12-03T13:09:27.513Z,97368.25
2022-12-03T13:12:21.299Z,97365.97
2022-12-03T13:15:38.148Z,97364.34
2022-12-03T13:18:46.071Z,97361.88
2022-12-03T13:21:38.882Z,97363.50
2022-12-03T13:24:52.122Z,97359.13
2022-12-03T13:27:37.513Z,97353.91
2022-12-03T13:30:23.200Z,97355.84
2022-12-03T13:36:28.034Z,97359.78
2022-12-03T13:39:27.470Z,97358.31
2022-12-03T13:42:41.571Z,97350.66
2022-12-03T13:45:34.595Z,97348.03
2022-12-03T13:48:24.216Z,97364.53
2022-12-03T13:51:32.333Z,97364.53
2022-12-03T13:54:26.316Z,97366.97
2022-12-03T13:57:12.654Z,97363.38
2022-12-03T14:00:23.477Z,97360.59
2022-12-03T14:03:09.459Z,97360.41
2022-12-03T14:05:55.163Z,97352.44
2022-12-03T14:08:40.941Z,97354.22
2022-12-03T14:11:45.276Z,97352.59
2022-12-03T14:14:30.814Z,97342.16
2022-12-03T14:17:17.263Z,97348.19
2022-12-03T14:20:04.090Z,97345.59
2022-12-03T14:22:56.310Z,97347.38
2022-12-03T14:25:44.656Z,97343.78
2022-12-03T14:28:30.165Z,97351.63
2022-12-03T14:31:15.926Z,97355.84
2022-12-03T14:34:03.975Z,97349.66
2022-12-03T14:36:49.791Z,97351.28
2022-12-03T14:39:37.243Z,97346.22
2022-12-03T14:42:22.453Z,97355.84
2022-12-03T14:45:08.554Z,97357.50
2022-12-03T14:47:53.892Z,97357.50
2022-12-03T14:50:39.457Z,97349.66
2022-12-03T14:53:27.416Z,97358.47
2022-12-03T14:56:13.669Z,97351.44
2022-12-03T14:58:59.483Z,97356.53
2022-12-03T15:01:45.623Z,97348.69
2022-12-03T15:04:31.045Z,97358.16
2022-12-03T15:07:16.560Z,97354.53
2022-12-03T15:10:02.018Z,97362.38
2022-12-03T15:12:47.313Z,97355.38
2022-12-03T15:15:32.968Z,97361.38
2022-12-03T15:18:18.773Z,97352.75
2022-12-03T15:21:04.151Z,97355.19
2022-12-03T15:23:49.750Z,97350.81
2022-12-03T15:26:35.215Z,97349.97
2022-12-03T15:29:21.271Z,97348.03
2022-12-03T15:32:06.528Z,97338.38
2022-12-03T15:34:52.114Z,97333.00
2022-12-03T15:37:37.944Z,97333.81
2022-12-03T15:40:24.472Z,97332.00
2022-12-03T15:43:10.329Z,97327.63
2022-12-03T15:45:56.263Z,97331.03
2022-12-03T15:48:42.282Z,97326.78
2022-12-03T15:51:28.044Z,97328.44
2022-12-03T15:54:13.547Z,97331.69
2022-12-03T15:56:59.269Z,97338.53
2022-12-03T15:59:45.360Z,97337.72
2022-12-03T16:02:34.070Z,97333.16
2022-12-03T16:05:20.112Z,97327.75
2022-12-03T16:08:06.012Z,97331.19
2022-12-03T16:10:51.423Z,97337.22
2022-12-03T16:13:37.065Z,97326.59
2022-12-03T16:16:22.802Z,97322.22
2022-12-03T16:19:08.490Z,97328.25
2022-12-03T16:21:54.494Z,97320.22
2022-12-03T16:24:40.108Z,97322.69
2022-12-03T16:27:26.109Z,97320.88
2022-12-03T16:30:12.339Z,97316.63
2022-12-03T16:32:57.585Z,97316.63
2022-12-03T16:35:43.051Z,97316.63
2022-12-03T16:38:28.719Z,97312.25
2022-12-03T16:41:14.255Z,97315.47
2022-12-03T16:44:02.744Z,97305.88
2022-12-03T16:46:48.133Z,97312.72
2022-12-03T16:49:33.500Z,97310.75
2022-12-03T16:52:19.086Z,97300.28
2022-12-03T16:55:04.718Z,97312.38
2022-12-03T16:57:50.078Z,97306.81
2022-12-03T17:00:35.553Z,97305.03
2022-12-03T17:03:22.853Z,97304.22
2022-12-03T17:06:08.621Z,97302.41
2022-12-03T17:08:57.129Z,97303.25
2022-12-03T17:11:42.683Z,97303.06
2022-12-03T17:14:32.975Z,97290.00
2022-12-03T17:17:18.836Z,97294.25
2022-12-03T17:20:06.345Z,97289.81
2022-12-03T17:22:52.211Z,97286.25
2022-12-03T17:25:38.025Z,97295.72
2022-12-03T17:28:23.420Z,97294.88
2022-12-03T17:31:09.203Z,97290.47
2022-12-03T17:33:57.454Z,97290.47
2022-12-03T17:36:42.789Z,97288.50
2022-12-03T17:39:28.331Z,97290.13
2022-12-03T17:42:14.114Z,97282.28
2022-12-03T17:44:59.338Z,97286.53
2022-12-03T17:47:44.806Z,97280.34
2022-12-03T17:50:30.156Z,97279.34
2022-12-03T17:53:15.559Z,97281.97
2022-12-03T17:56:00.937Z,97280.97
2022-12-03T17:58:46.749Z,97279.19
2022-12-03T18:01:32.420Z,97270.53
2022-12-03T18:04:18.047Z,97279.00
2022-12-03T18:07:03.672Z,97277.22
2022-12-03T18:09:49.082Z,97282.44
2022-12-03T18:12:34.634Z,97281.47
2022-12-03T18:15:20.682Z,97280.44
2022-12-03T18:18:06.470Z,97285.53
2022-12-03T18:20:53.853Z,97285.69
2022-12-03T18:23:39.390Z,97278.66
2022-12-03T18:26:25.735Z,97275.88
2022-12-03T18:29:11.439Z,97265.44
2022-12-03T18:31:56.961Z,97268.88
2022-12-03T18:34:45.322Z,97275.88
2022-12-03T18:37:33.211Z,97284.53
2022-12-03T18:40:23.610Z,97281.09
2022-12-03T18:43:14.896Z,97286.00
2022-12-03T18:46:00.612Z,97280.59
2022-12-03T18:48:48.278Z,97278.00
2022-12-03T18:51:34.052Z,97269.16
2022-12-03T18:54:19.691Z,97268.34
2022-12-03T18:57:05.867Z,97278.78
2022-12-03T18:59:51.082Z,97279.63
2022-12-03T19:03:01.863Z,97273.56
2022-12-03T19:05:42.448Z,97265.56
2022-12-03T19:08:27.962Z,97266.38
2022-12-03T19:11:15.590Z,97261.16
2022-12-03T19:14:03.656Z,97266.19
2022-12-03T19:16:50.471Z,97268.81
2022-12-03T19:19:37.002Z,97265.22
2022-12-03T19:22:24.213Z,97260.00
2022-12-03T19:25:10.012Z,97260.00
2022-12-03T19:27:58.034Z,97261.63
2022-12-03T19:30:44.113Z,97272.06
2022-12-03T19:33:30.017Z,97254.44
2022-12-03T19:36:34.687Z,97254.44
2022-12-03T19:39:20.280Z,97253.59
2022-12-03T19:42:06.988Z,97245.59
2022-12-03T19:44:52.803Z,97240.34
2022-12-03T19:47:39.636Z,97234.16
2022-12-03T19:50:27.196Z,97241.19
2022-12-03T19:53:14.412Z,97246.41
2022-12-03T19:56:05.536Z,97247.22
2022-12-03T19:58:56.319Z,97249.81
2022-12-03T20:01:44.232Z,97249.69
2022-12-03T20:04:31.109Z,97259.94
2022-12-03T20:07:16.841Z,97262.56
2022-12-03T20:10:06.372Z,97265.81
2022-12-03T20:12:52.204Z,97255.38
2022-12-03T20:15:37.596Z,97251.75
2022-12-03T20:18:23.982Z,97257.81
2022-12-03T20:21:11.424Z,97250.78
2022-12-03T20:23:56.994Z,97251.59
2022-12-03T20:26:44.235Z,97244.56
2022-12-03T20:29:31.210Z,97242.59
2022-12-03T20:32:16.925Z,97246.00
2022-12-03T20:35:03.466Z,97238.19
2022-12-03T20:37:49.122Z,97243.22
2022-12-03T20:40:39.896Z,97245.84
2022-12-03T20:43:25.500Z,97248.28
2022-12-03T20:46:19.597Z,97247.47
2022-12-03T20:49:06.679Z,97249.94
2022-12-03T20:51:52.085Z,97246.28
2022-12-03T20:54:38.509Z,97247.94
2022-12-03T20:57:24.455Z,97239.09
2022-12-03T21:00:10.515Z,97240.75
2022-12-03T21:02:58.469Z,97237.13
2022-12-03T21:05:44.463Z,97231.91
2022-12-03T21:08:41.071Z,97231.72
2022-12-03T21:11:30.792Z,97235.00
2022-12-03T21:14:16.257Z,97236.63
2022-12-03T21:17:10.269Z,97240.84
2022-12-03T21:19:56.612Z,97234.00
2022-12-03T21:22:42.544Z,97236.44
2022-12-03T21:25:29.060Z,97234.63
2022-12-03T21:28:14.766Z,97235.28
2022-12-03T21:31:02.495Z,97235.09
2022-12-03T21:33:48.357Z,97233.31
2022-12-03T21:36:33.947Z,97234.13
2022-12-03T21:39:19.727Z,97227.91
2022-12-03T21:42:34.453Z,97231.31
2022-12-03T21:45:11.305Z,97224.91
2022-12-03T21:47:57.054Z,97230.16
2022-12-03T21:50:42.818Z,97236.22
2022-12-03T21:53:29.451Z,97224.78
2022-12-03T21:56:17.610Z,97216.91
2022-12-03T21:59:03.576Z,97217.91
2022-12-03T22:01:49.477Z,97210.69
2022-12-03T22:04:35.050Z,97218.53
2022-12-03T22:07:20.686Z,97214.13
2022-12-03T22:10:08.845Z,97220.16
2022-12-03T22:12:54.339Z,97217.53
2022-12-03T22:15:40.357Z,97201.84
2022-12-03T22:18:26.300Z,97204.47
2022-12-03T22:21:17.760Z,97205.31
2022-12-03T22:24:03.719Z,97202.50
2022-12-03T22:26:49.960Z,97201.53
2022-12-03T22:29:35.616Z,97211.78
2022-12-03T22:32:21.139Z,97201.16
2022-12-03T22:35:07.262Z,97202.78
2022-12-03T22:37:52.545Z,97189.72
2022-12-03T22:40:39.782Z,97191.34
2022-12-03T22:43:25.256Z,97189.72
2022-12-03T22:46:12.699Z,97179.25
2022-12-03T22:49:03.472Z,97175.66
2022-12-03T22:51:52.398Z,97169.44
2022-12-03T22:54:37.937Z,97170.22
2022-12-03T22:57:23.388Z,97165.84
2022-12-03T23:00:10.684Z,97170.88
2022-12-03T23:02:56.419Z,97169.06
2022-12-03T23:05:42.045Z,97165.66
2022-12-03T23:08:27.574Z,97159.63
2022-12-03T23:11:13.744Z,97163.84
2022-12-03T23:13:59.384Z,97169.69
2022-12-03T23:16:44.889Z,97166.09
2022-12-03T23:19:30.714Z,97165.13
2022-12-03T23:22:16.343Z,97158.06
2022-12-03T23:25:02.106Z,97166.75
2022-12-03T23:27:47.882Z,97164.13
2022-12-03T23:30:39.788Z,97158.72
2022-12-03T23:33:25.689Z,97157.72
2022-12-03T23:36:11.674Z,97157.53
2022-12-03T23:38:57.914Z,97153.94
2022-12-03T23:41:43.221Z,97152.13
2022-12-03T23:44:28.759Z,97151.13
2022-12-03T23:47:15.081Z,97154.59
2022-12-03T23:50:00.828Z,97145.72
2022-12-03T23:52:46.065Z,97147.34
2022-12-03T23:55:31.795Z,97144.75
2022-12-03T23:58:17.596Z,97143.75
